sensor_id;sensor_type;location;lat;lon;timestamp;temperature;humidity
6486;DHT22;3276;48.490;9.222;2022-12-20T00:02:23;2.60;36.10
6486;DHT22;3276;48.490;9.222;2022-12-20T00:04:50;2.60;36.10
6486;DHT22;3276;48.490;9.222;2022-12-20T00:07:15;2.50;36.00
6486;DHT22;3276;48.490;9.222;2022-12-20T00:09:41;2.40;36.60
6486;DHT22;3276;48.490;9.222;2022-12-20T00:12:06;2.40;37.20
6486;DHT22;3276;48.490;9.222;2022-12-20T00:14:32;2.40;36.80
6486;DHT22;3276;48.490;9.222;2022-12-20T00:16:57;2.40;36.70
6486;DHT22;3276;48.490;9.222;2022-12-20T00:19:23;2.30;37.00
6486;DHT22;3276;48.490;9.222;2022-12-20T00:21:48;2.30;37.70
6486;DHT22;3276;48.490;9.222;2022-12-20T00:24:14;2.40;37.30
6486;DHT22;3276;48.490;9.222;2022-12-20T00:26:39;2.30;36.90
6486;DHT22;3276;48.490;9.222;2022-12-20T00:29:05;2.30;37.20
6486;DHT22;3276;48.490;9.222;2022-12-20T00:31:31;2.30;37.30
6486;DHT22;3276;48.490;9.222;2022-12-20T00:33:58;2.20;37.20
6486;DHT22;3276;48.490;9.222;2022-12-20T00:36:25;2.20;37.90
6486;DHT22;3276;48.490;9.222;2022-12-20T00:38:53;2.20;37.90
6486;DHT22;3276;48.490;9.222;2022-12-20T00:41:22;2.20;37.50
6486;DHT22;3276;48.490;9.222;2022-12-20T00:43:47;2.10;38.30
6486;DHT22;3276;48.490;9.222;2022-12-20T00:46:15;2.10;39.50
6486;DHT22;3276;48.490;9.222;2022-12-20T00:48:42;2.20;39.20
6486;DHT22;3276;48.490;9.222;2022-12-20T00:51:10;2.20;39.00
6486;DHT22;3276;48.490;9.222;2022-12-20T00:53:37;2.20;38.70
6486;DHT22;3276;48.490;9.222;2022-12-20T00:56:04;2.20;40.40
6486;DHT22;3276;48.490;9.222;2022-12-20T00:58:31;2.20;40.00
6486;DHT22;3276;48.490;9.222;2022-12-20T01:00:57;2.10;39.80
6486;DHT22;3276;48.490;9.222;2022-12-20T01:03:24;2.20;40.90
6486;DHT22;3276;48.490;9.222;2022-12-20T01:05:59;2.20;40.00
6486;DHT22;3276;48.490;9.222;2022-12-20T01:08:27;2.20;40.90
6486;DHT22;3276;48.490;9.222;2022-12-20T01:11:01;2.30;41.60
6486;DHT22;3276;48.490;9.222;2022-12-20T01:13:27;2.40;41.00
6486;DHT22;3276;48.490;9.222;2022-12-20T01:15:53;2.40;39.40
6486;DHT22;3276;48.490;9.222;2022-12-20T01:18:18;2.40;38.90
6486;DHT22;3276;48.490;9.222;2022-12-20T01:20:44;2.40;39.80
6486;DHT22;3276;48.490;9.222;2022-12-20T01:23:10;2.40;40.00
6486;DHT22;3276;48.490;9.222;2022-12-20T01:25:35;2.50;40.60
6486;DHT22;3276;48.490;9.222;2022-12-20T01:28:01;2.50;41.10
6486;DHT22;3276;48.490;9.222;2022-12-20T01:30:26;2.70;40.00
6486;DHT22;3276;48.490;9.222;2022-12-20T01:32:52;2.80;38.30
6486;DHT22;3276;48.490;9.222;2022-12-20T01:35:17;2.80;38.20
6486;DHT22;3276;48.490;9.222;2022-12-20T01:37:43;2.80;38.80
6486;DHT22;3276;48.490;9.222;2022-12-20T01:40:09;2.90;38.10
6486;DHT22;3276;48.490;9.222;2022-12-20T01:42:35;2.90;37.40
6486;DHT22;3276;48.490;9.222;2022-12-20T01:45:01;2.90;37.30
6486;DHT22;3276;48.490;9.222;2022-12-20T01:47:30;3.00;37.30
6486;DHT22;3276;48.490;9.222;2022-12-20T01:49:58;3.00;36.50
6486;DHT22;3276;48.490;9.222;2022-12-20T01:52:35;3.00;36.40
6486;DHT22;3276;48.490;9.222;2022-12-20T01:55:06;3.10;36.60
6486;DHT22;3276;48.490;9.222;2022-12-20T01:57:46;3.00;36.40
6486;DHT22;3276;48.490;9.222;2022-12-20T02:00:14;3.00;36.40
6486;DHT22;3276;48.490;9.222;2022-12-20T02:02:41;3.00;37.70
6486;DHT22;3276;48.490;9.222;2022-12-20T02:05:08;3.10;37.80
6486;DHT22;3276;48.490;9.222;2022-12-20T02:07:36;3.10;37.50
6486;DHT22;3276;48.490;9.222;2022-12-20T02:10:03;3.10;38.60
6486;DHT22;3276;48.490;9.222;2022-12-20T02:12:45;3.20;39.50
6486;DHT22;3276;48.490;9.222;2022-12-20T02:15:39;3.30;38.70
6486;DHT22;3276;48.490;9.222;2022-12-20T02:29:39;4.20;35.70
6486;DHT22;3276;48.490;9.222;2022-12-20T02:32:14;4.30;34.40
6486;DHT22;3276;48.490;9.222;2022-12-20T02:34:41;4.50;34.00
6486;DHT22;3276;48.490;9.222;2022-12-20T02:37:08;4.60;33.80
6486;DHT22;3276;48.490;9.222;2022-12-20T02:39:35;4.70;32.10
6486;DHT22;3276;48.490;9.222;2022-12-20T02:42:08;4.80;31.10
6486;DHT22;3276;48.490;9.222;2022-12-20T02:44:37;4.90;30.40
6486;DHT22;3276;48.490;9.222;2022-12-20T02:47:28;5.00;30.00
6486;DHT22;3276;48.490;9.222;2022-12-20T02:49:55;5.10;29.60
6486;DHT22;3276;48.490;9.222;2022-12-20T02:52:24;5.20;29.40
6486;DHT22;3276;48.490;9.222;2022-12-20T02:54:52;5.20;28.50
6486;DHT22;3276;48.490;9.222;2022-12-20T02:57:31;5.30;27.80
6486;DHT22;3276;48.490;9.222;2022-12-20T03:00:08;5.40;28.30
6486;DHT22;3276;48.490;9.222;2022-12-20T03:02:35;5.40;27.40
6486;DHT22;3276;48.490;9.222;2022-12-20T03:05:22;5.40;27.10
6486;DHT22;3276;48.490;9.222;2022-12-20T03:07:48;5.50;26.90
6486;DHT22;3276;48.490;9.222;2022-12-20T03:10:14;5.50;26.50
6486;DHT22;3276;48.490;9.222;2022-12-20T03:12:40;5.60;26.80
6486;DHT22;3276;48.490;9.222;2022-12-20T03:15:06;5.60;26.40
6486;DHT22;3276;48.490;9.222;2022-12-20T03:17:32;5.50;26.50
6486;DHT22;3276;48.490;9.222;2022-12-20T03:19:57;5.50;26.50
6486;DHT22;3276;48.490;9.222;2022-12-20T03:22:23;5.50;26.50
6486;DHT22;3276;48.490;9.222;2022-12-20T03:24:49;5.40;26.50
6486;DHT22;3276;48.490;9.222;2022-12-20T03:27:14;5.40;26.20
6486;DHT22;3276;48.490;9.222;2022-12-20T03:29:40;5.40;26.40
6486;DHT22;3276;48.490;9.222;2022-12-20T03:32:06;5.40;26.80
6486;DHT22;3276;48.490;9.222;2022-12-20T03:34:32;5.40;26.40
6486;DHT22;3276;48.490;9.222;2022-12-20T03:36:57;5.40;26.40
6486;DHT22;3276;48.490;9.222;2022-12-20T03:39:23;5.50;26.20
6486;DHT22;3276;48.490;9.222;2022-12-20T03:41:49;5.40;26.10
6486;DHT22;3276;48.490;9.222;2022-12-20T03:44:14;5.50;26.20
6486;DHT22;3276;48.490;9.222;2022-12-20T03:46:40;5.50;26.40
6486;DHT22;3276;48.490;9.222;2022-12-20T03:49:05;5.50;25.80
6486;DHT22;3276;48.490;9.222;2022-12-20T03:51:31;5.40;25.90
6486;DHT22;3276;48.490;9.222;2022-12-20T03:53:57;5.40;26.10
6486;DHT22;3276;48.490;9.222;2022-12-20T03:56:22;5.40;25.40
6486;DHT22;3276;48.490;9.222;2022-12-20T03:58:48;5.40;26.20
6486;DHT22;3276;48.490;9.222;2022-12-20T04:01:19;5.20;25.90
6486;DHT22;3276;48.490;9.222;2022-12-20T04:03:44;5.20;26.10
6486;DHT22;3276;48.490;9.222;2022-12-20T04:06:10;5.10;26.10
6486;DHT22;3276;48.490;9.222;2022-12-20T04:08:35;4.90;26.50
6486;DHT22;3276;48.490;9.222;2022-12-20T04:11:01;4.70;27.30
6486;DHT22;3276;48.490;9.222;2022-12-20T04:13:49;4.60;27.10
6486;DHT22;3276;48.490;9.222;2022-12-20T04:16:18;4.50;27.40
6486;DHT22;3276;48.490;9.222;2022-12-20T04:18:44;4.50;27.20
6486;DHT22;3276;48.490;9.222;2022-12-20T04:21:10;4.40;27.90
6486;DHT22;3276;48.490;9.222;2022-12-20T04:23:38;4.40;28.00
6486;DHT22;3276;48.490;9.222;2022-12-20T04:26:06;4.40;28.00
6486;DHT22;3276;48.490;9.222;2022-12-20T04:28:32;4.40;28.00
6486;DHT22;3276;48.490;9.222;2022-12-20T04:30:58;4.30;27.90
6486;DHT22;3276;48.490;9.222;2022-12-20T04:33:24;4.30;29.00
6486;DHT22;3276;48.490;9.222;2022-12-20T04:35:50;4.20;29.50
6486;DHT22;3276;48.490;9.222;2022-12-20T04:38:17;4.30;30.10
6486;DHT22;3276;48.490;9.222;2022-12-20T04:40:42;4.40;31.00
6486;DHT22;3276;48.490;9.222;2022-12-20T04:43:08;4.50;30.90
6486;DHT22;3276;48.490;9.222;2022-12-20T04:45:34;4.60;30.50
6486;DHT22;3276;48.490;9.222;2022-12-20T04:48:00;4.70;29.40
6486;DHT22;3276;48.490;9.222;2022-12-20T04:50:25;4.80;29.30
6486;DHT22;3276;48.490;9.222;2022-12-20T04:52:51;4.90;28.50
6486;DHT22;3276;48.490;9.222;2022-12-20T04:55:39;5.00;28.40
6486;DHT22;3276;48.490;9.222;2022-12-20T04:58:05;4.70;27.90
6486;DHT22;3276;48.490;9.222;2022-12-20T05:00:31;4.70;28.20
6486;DHT22;3276;48.490;9.222;2022-12-20T05:02:57;4.70;28.20
6486;DHT22;3276;48.490;9.222;2022-12-20T05:05:26;4.60;28.10
6486;DHT22;3276;48.490;9.222;2022-12-20T05:07:52;4.60;28.10
6486;DHT22;3276;48.490;9.222;2022-12-20T05:10:18;4.60;28.20
6486;DHT22;3276;48.490;9.222;2022-12-20T05:12:43;4.60;28.10
6486;DHT22;3276;48.490;9.222;2022-12-20T05:15:10;4.60;28.10
6486;DHT22;3276;48.490;9.222;2022-12-20T05:17:36;4.60;28.10
6486;DHT22;3276;48.490;9.222;2022-12-20T05:20:02;4.60;28.10
6486;DHT22;3276;48.490;9.222;2022-12-20T05:22:28;4.60;28.10
6486;DHT22;3276;48.490;9.222;2022-12-20T05:25:12;4.60;28.10
6486;DHT22;3276;48.490;9.222;2022-12-20T05:27:57;4.50;28.10
6486;DHT22;3276;48.490;9.222;2022-12-20T05:30:23;4.50;28.00
6486;DHT22;3276;48.490;9.222;2022-12-20T05:32:48;4.50;28.00
6486;DHT22;3276;48.490;9.222;2022-12-20T05:35:14;4.50;28.10
6486;DHT22;3276;48.490;9.222;2022-12-20T05:37:39;4.50;28.10
6486;DHT22;3276;48.490;9.222;2022-12-20T05:40:06;4.50;28.10
6486;DHT22;3276;48.490;9.222;2022-12-20T05:42:31;4.50;28.00
6486;DHT22;3276;48.490;9.222;2022-12-20T05:44:57;4.50;28.00
6486;DHT22;3276;48.490;9.222;2022-12-20T05:47:22;4.50;28.10
6486;DHT22;3276;48.490;9.222;2022-12-20T05:49:49;4.50;28.20
6486;DHT22;3276;48.490;9.222;2022-12-20T05:52:14;4.40;28.50
6486;DHT22;3276;48.490;9.222;2022-12-20T05:54:40;4.40;28.60
6486;DHT22;3276;48.490;9.222;2022-12-20T05:57:05;4.30;28.60
6486;DHT22;3276;48.490;9.222;2022-12-20T05:59:31;4.20;29.10
6486;DHT22;3276;48.490;9.222;2022-12-20T06:01:56;4.00;30.80
6486;DHT22;3276;48.490;9.222;2022-12-20T06:04:22;4.00;31.10
6486;DHT22;3276;48.490;9.222;2022-12-20T06:06:48;4.10;30.90
6486;DHT22;3276;48.490;9.222;2022-12-20T06:09:13;3.90;31.20
6486;DHT22;3276;48.490;9.222;2022-12-20T06:11:39;3.90;32.90
6486;DHT22;3276;48.490;9.222;2022-12-20T06:14:04;3.90;32.30
6486;DHT22;3276;48.490;9.222;2022-12-20T06:16:30;3.90;32.00
6486;DHT22;3276;48.490;9.222;2022-12-20T06:18:55;3.90;32.10
6486;DHT22;3276;48.490;9.222;2022-12-20T06:21:21;3.80;32.00
6486;DHT22;3276;48.490;9.222;2022-12-20T06:23:47;3.70;32.50
6486;DHT22;3276;48.490;9.222;2022-12-20T06:26:13;3.70;33.30
6486;DHT22;3276;48.490;9.222;2022-12-20T06:28:38;3.70;34.00
6486;DHT22;3276;48.490;9.222;2022-12-20T06:31:09;3.80;33.40
6486;DHT22;3276;48.490;9.222;2022-12-20T06:33:35;3.80;33.40
6486;DHT22;3276;48.490;9.222;2022-12-20T06:36:01;3.80;32.70
6486;DHT22;3276;48.490;9.222;2022-12-20T06:38:27;3.90;32.10
6486;DHT22;3276;48.490;9.222;2022-12-20T06:40:52;3.90;32.90
6486;DHT22;3276;48.490;9.222;2022-12-20T06:43:18;3.90;32.50
6486;DHT22;3276;48.490;9.222;2022-12-20T06:45:43;3.90;32.00
6486;DHT22;3276;48.490;9.222;2022-12-20T06:48:10;3.90;33.20
6486;DHT22;3276;48.490;9.222;2022-12-20T06:50:36;3.90;32.80
6486;DHT22;3276;48.490;9.222;2022-12-20T06:53:02;3.90;32.70
6486;DHT22;3276;48.490;9.222;2022-12-20T06:55:28;3.90;32.90
6486;DHT22;3276;48.490;9.222;2022-12-20T06:57:53;4.00;32.20
6486;DHT22;3276;48.490;9.222;2022-12-20T07:00:21;4.10;32.20
6486;DHT22;3276;48.490;9.222;2022-12-20T07:02:46;4.20;32.30
6486;DHT22;3276;48.490;9.222;2022-12-20T07:05:12;4.20;31.90
6486;DHT22;3276;48.490;9.222;2022-12-20T07:07:38;4.20;31.40
6486;DHT22;3276;48.490;9.222;2022-12-20T07:10:04;4.30;32.00
6486;DHT22;3276;48.490;9.222;2022-12-20T07:12:29;4.20;31.90
6486;DHT22;3276;48.490;9.222;2022-12-20T07:14:55;4.20;31.60
6486;DHT22;3276;48.490;9.222;2022-12-20T07:17:20;4.20;32.00
6486;DHT22;3276;48.490;9.222;2022-12-20T07:19:46;4.20;32.00
6486;DHT22;3276;48.490;9.222;2022-12-20T07:22:11;4.20;31.90
6486;DHT22;3276;48.490;9.222;2022-12-20T07:24:37;4.20;30.90
6486;DHT22;3276;48.490;9.222;2022-12-20T07:27:03;4.20;31.00
6486;DHT22;3276;48.490;9.222;2022-12-20T07:29:29;4.20;31.10
6486;DHT22;3276;48.490;9.222;2022-12-20T07:31:54;4.10;31.00
6486;DHT22;3276;48.490;9.222;2022-12-20T07:34:20;4.00;31.60
6486;DHT22;3276;48.490;9.222;2022-12-20T07:36:45;4.00;31.20
6486;DHT22;3276;48.490;9.222;2022-12-20T07:39:11;4.10;31.60
6486;DHT22;3276;48.490;9.222;2022-12-20T07:41:37;4.20;32.00
6486;DHT22;3276;48.490;9.222;2022-12-20T07:44:02;4.20;32.00
6486;DHT22;3276;48.490;9.222;2022-12-20T07:46:28;4.30;31.70
6486;DHT22;3276;48.490;9.222;2022-12-20T07:48:54;4.40;31.90
6486;DHT22;3276;48.490;9.222;2022-12-20T07:51:25;4.50;31.60
6486;DHT22;3276;48.490;9.222;2022-12-20T07:53:59;4.50;30.90
6486;DHT22;3276;48.490;9.222;2022-12-20T07:56:26;4.60;30.90
6486;DHT22;3276;48.490;9.222;2022-12-20T07:58:54;4.70;30.50
6486;DHT22;3276;48.490;9.222;2022-12-20T08:01:23;4.60;30.00
6486;DHT22;3276;48.490;9.222;2022-12-20T08:03:53;4.70;30.10
6486;DHT22;3276;48.490;9.222;2022-12-20T08:06:21;4.80;29.80
6486;DHT22;3276;48.490;9.222;2022-12-20T08:08:53;4.80;29.00
6486;DHT22;3276;48.490;9.222;2022-12-20T08:11:21;4.90;29.00
6486;DHT22;3276;48.490;9.222;2022-12-20T08:13:48;5.00;29.00
6486;DHT22;3276;48.490;9.222;2022-12-20T08:16:15;5.10;28.90
6486;DHT22;3276;48.490;9.222;2022-12-20T08:18:40;5.10;28.80
6486;DHT22;3276;48.490;9.222;2022-12-20T08:21:06;5.20;28.50
6486;DHT22;3276;48.490;9.222;2022-12-20T08:23:31;5.30;28.50
6486;DHT22;3276;48.490;9.222;2022-12-20T08:26:00;5.40;28.30
6486;DHT22;3276;48.490;9.222;2022-12-20T08:28:25;5.40;26.70
6486;DHT22;3276;48.490;9.222;2022-12-20T08:30:51;5.50;26.60
6486;DHT22;3276;48.490;9.222;2022-12-20T08:33:16;5.50;27.20
6486;DHT22;3276;48.490;9.222;2022-12-20T08:35:42;5.50;26.60
6486;DHT22;3276;48.490;9.222;2022-12-20T08:38:07;5.60;26.50
6486;DHT22;3276;48.490;9.222;2022-12-20T08:40:33;5.60;26.50
6486;DHT22;3276;48.490;9.222;2022-12-20T08:42:58;5.70;26.80
6486;DHT22;3276;48.490;9.222;2022-12-20T08:45:24;5.80;26.70
6486;DHT22;3276;48.490;9.222;2022-12-20T08:47:49;5.90;26.70
6486;DHT22;3276;48.490;9.222;2022-12-20T08:50:15;6.00;26.20
6486;DHT22;3276;48.490;9.222;2022-12-20T08:52:40;6.10;25.70
6486;DHT22;3276;48.490;9.222;2022-12-20T08:55:06;6.20;25.60
6486;DHT22;3276;48.490;9.222;2022-12-20T08:57:32;6.20;24.90
6486;DHT22;3276;48.490;9.222;2022-12-20T08:59:57;6.20;24.90
6486;DHT22;3276;48.490;9.222;2022-12-20T09:02:23;6.20;24.80
6486;DHT22;3276;48.490;9.222;2022-12-20T09:04:48;6.20;24.60
6486;DHT22;3276;48.490;9.222;2022-12-20T09:07:14;6.20;25.60
6486;DHT22;3276;48.490;9.222;2022-12-20T09:09:40;6.20;25.00
6486;DHT22;3276;48.490;9.222;2022-12-20T09:12:05;6.30;25.10
6486;DHT22;3276;48.490;9.222;2022-12-20T09:14:32;6.40;24.50
6486;DHT22;3276;48.490;9.222;2022-12-20T09:16:57;6.40;24.60
6486;DHT22;3276;48.490;9.222;2022-12-20T09:19:23;6.50;24.50
6486;DHT22;3276;48.490;9.222;2022-12-20T09:21:48;6.50;24.10
6486;DHT22;3276;48.490;9.222;2022-12-20T09:24:14;6.60;24.20
6486;DHT22;3276;48.490;9.222;2022-12-20T09:26:40;6.70;23.50
6486;DHT22;3276;48.490;9.222;2022-12-20T09:29:05;6.70;23.60
6486;DHT22;3276;48.490;9.222;2022-12-20T09:31:31;6.80;23.70
6486;DHT22;3276;48.490;9.222;2022-12-20T09:33:58;6.80;23.10
6486;DHT22;3276;48.490;9.222;2022-12-20T09:36:25;6.90;22.90
6486;DHT22;3276;48.490;9.222;2022-12-20T09:38:52;7.00;22.50
6486;DHT22;3276;48.490;9.222;2022-12-20T09:41:31;7.20;22.30
6486;DHT22;3276;48.490;9.222;2022-12-20T09:44:02;7.20;22.30
6486;DHT22;3276;48.490;9.222;2022-12-20T09:46:28;7.30;22.00
6486;DHT22;3276;48.490;9.222;2022-12-20T09:48:54;7.50;21.70
6486;DHT22;3276;48.490;9.222;2022-12-20T09:56:35;7.90;21.20
6486;DHT22;3276;48.490;9.222;2022-12-20T09:59:11;8.10;20.80
6486;DHT22;3276;48.490;9.222;2022-12-20T10:01:38;8.10;20.40
6486;DHT22;3276;48.490;9.222;2022-12-20T10:04:28;8.20;20.60
6486;DHT22;3276;48.490;9.222;2022-12-20T10:07:30;8.40;19.90
6486;DHT22;3276;48.490;9.222;2022-12-20T10:10:15;8.40;19.30
6486;DHT22;3276;48.490;9.222;2022-12-20T10:12:54;8.30;18.80
6486;DHT22;3276;48.490;9.222;2022-12-20T10:15:39;8.30;18.50
6486;DHT22;3276;48.490;9.222;2022-12-20T10:24:01;8.50;18.10
6486;DHT22;3276;48.490;9.222;2022-12-20T10:26:28;8.50;18.20
6486;DHT22;3276;48.490;9.222;2022-12-20T10:28:54;8.40;18.10
6486;DHT22;3276;48.490;9.222;2022-12-20T10:31:19;8.20;17.90
6486;DHT22;3276;48.490;9.222;2022-12-20T10:33:45;8.10;18.60
6486;DHT22;3276;48.490;9.222;2022-12-20T10:36:27;8.00;19.00
6486;DHT22;3276;48.490;9.222;2022-12-20T10:38:55;7.80;18.90
6486;DHT22;3276;48.490;9.222;2022-12-20T10:41:24;7.60;19.60
6486;DHT22;3276;48.490;9.222;2022-12-20T10:44:00;7.50;19.90
6486;DHT22;3276;48.490;9.222;2022-12-20T10:46:41;7.30;20.40
6486;DHT22;3276;48.490;9.222;2022-12-20T10:49:29;7.30;20.70
6486;DHT22;3276;48.490;9.222;2022-12-20T10:54:40;7.20;21.50
6486;DHT22;3276;48.490;9.222;2022-12-20T10:57:19;7.00;21.40
6486;DHT22;3276;48.490;9.222;2022-12-20T10:59:57;6.90;21.80
6486;DHT22;3276;48.490;9.222;2022-12-20T11:02:34;6.90;21.90
6486;DHT22;3276;48.490;9.222;2022-12-20T11:05:02;6.90;22.20
6486;DHT22;3276;48.490;9.222;2022-12-20T11:07:30;6.90;22.50
6486;DHT22;3276;48.490;9.222;2022-12-20T11:09:59;6.90;22.50
6486;DHT22;3276;48.490;9.222;2022-12-20T11:12:25;6.90;22.40
6486;DHT22;3276;48.490;9.222;2022-12-20T11:15:10;6.70;23.10
6486;DHT22;3276;48.490;9.222;2022-12-20T11:17:45;6.70;23.60
6486;DHT22;3276;48.490;9.222;2022-12-20T11:20:50;6.70;23.70
6486;DHT22;3276;48.490;9.222;2022-12-20T11:31:19;7.00;22.80
6486;DHT22;3276;48.490;9.222;2022-12-20T11:50:03;8.00;20.50
6486;DHT22;3276;48.490;9.222;2022-12-20T11:52:49;8.00;20.00
6486;DHT22;3276;48.490;9.222;2022-12-20T11:57:59;8.10;19.50
6486;DHT22;3276;48.490;9.222;2022-12-20T12:00:26;8.30;19.70
6486;DHT22;3276;48.490;9.222;2022-12-20T12:03:10;8.40;19.40
6486;DHT22;3276;48.490;9.222;2022-12-20T12:05:46;8.50;19.00
6486;DHT22;3276;48.490;9.222;2022-12-20T12:08:23;8.50;18.50
6486;DHT22;3276;48.490;9.222;2022-12-20T12:11:04;8.40;18.30
6486;DHT22;3276;48.490;9.222;2022-12-20T12:13:35;8.10;18.80
6486;DHT22;3276;48.490;9.222;2022-12-20T12:18:39;8.00;19.70
6486;DHT22;3276;48.490;9.222;2022-12-20T12:21:22;8.00;19.70
6486;DHT22;3276;48.490;9.222;2022-12-20T12:24:02;7.90;19.90
6486;DHT22;3276;48.490;9.222;2022-12-20T12:26:34;8.00;20.30
6486;DHT22;3276;48.490;9.222;2022-12-20T12:29:02;8.30;20.30
6486;DHT22;3276;48.490;9.222;2022-12-20T12:31:36;8.70;20.20
6486;DHT22;3276;48.490;9.222;2022-12-20T12:39:46;9.50;17.10
6486;DHT22;3276;48.490;9.222;2022-12-20T12:48:10;9.20;17.40
6486;DHT22;3276;48.490;9.222;2022-12-20T12:50:43;9.00;17.70
6486;DHT22;3276;48.490;9.222;2022-12-20T12:53:20;9.00;18.10
6486;DHT22;3276;48.490;9.222;2022-12-20T12:55:48;9.00;18.40
6486;DHT22;3276;48.490;9.222;2022-12-20T13:03:39;9.10;18.50
6486;DHT22;3276;48.490;9.222;2022-12-20T13:08:50;9.10;18.50
6486;DHT22;3276;48.490;9.222;2022-12-20T13:11:36;9.20;18.30
6486;DHT22;3276;48.490;9.222;2022-12-20T13:19:50;9.00;18.40
6486;DHT22;3276;48.490;9.222;2022-12-20T13:38:34;8.70;19.50
6486;DHT22;3276;48.490;9.222;2022-12-20T13:41:01;8.60;19.30
6486;DHT22;3276;48.490;9.222;2022-12-20T13:43:43;8.50;19.80
6486;DHT22;3276;48.490;9.222;2022-12-20T13:51:24;8.30;20.40
6486;DHT22;3276;48.490;9.222;2022-12-20T13:53:56;8.20;20.50
6486;DHT22;3276;48.490;9.222;2022-12-20T13:59:06;8.10;20.90
6486;DHT22;3276;48.490;9.222;2022-12-20T14:01:50;8.20;20.90
6486;DHT22;3276;48.490;9.222;2022-12-20T14:04:17;8.30;20.80
6486;DHT22;3276;48.490;9.222;2022-12-20T14:06:43;8.40;21.00
6486;DHT22;3276;48.490;9.222;2022-12-20T14:09:33;8.30;21.20
6486;DHT22;3276;48.490;9.222;2022-12-20T14:12:13;8.20;21.70
6486;DHT22;3276;48.490;9.222;2022-12-20T14:14:47;8.20;22.20
6486;DHT22;3276;48.490;9.222;2022-12-20T14:17:32;8.30;22.20
6486;DHT22;3276;48.490;9.222;2022-12-20T14:20:20;8.50;22.00
6486;DHT22;3276;48.490;9.222;2022-12-20T14:23:01;8.70;21.70
6486;DHT22;3276;48.490;9.222;2022-12-20T14:25:34;8.80;20.60
6486;DHT22;3276;48.490;9.222;2022-12-20T14:28:02;8.60;20.00
6486;DHT22;3276;48.490;9.222;2022-12-20T14:32:54;8.20;21.20
6486;DHT22;3276;48.490;9.222;2022-12-20T14:35:21;8.10;21.30
6486;DHT22;3276;48.490;9.222;2022-12-20T14:37:56;8.00;21.00
6486;DHT22;3276;48.490;9.222;2022-12-20T14:40:22;7.70;21.80
6486;DHT22;3276;48.490;9.222;2022-12-20T14:42:48;7.60;21.80
6486;DHT22;3276;48.490;9.222;2022-12-20T14:48:01;7.50;22.30
6486;DHT22;3276;48.490;9.222;2022-12-20T14:50:33;7.40;22.10
6486;DHT22;3276;48.490;9.222;2022-12-20T14:53:00;7.30;22.10
6486;DHT22;3276;48.490;9.222;2022-12-20T14:55:37;7.20;22.80
6486;DHT22;3276;48.490;9.222;2022-12-20T14:58:29;7.10;23.60
6486;DHT22;3276;48.490;9.222;2022-12-20T15:00:59;7.10;23.80
6486;DHT22;3276;48.490;9.222;2022-12-20T15:03:25;7.00;24.40
6486;DHT22;3276;48.490;9.222;2022-12-20T15:05:55;6.80;25.40
6486;DHT22;3276;48.490;9.222;2022-12-20T15:10:56;6.80;25.40
6486;DHT22;3276;48.490;9.222;2022-12-20T15:13:27;6.70;26.10
6486;DHT22;3276;48.490;9.222;2022-12-20T15:15:54;6.70;26.30
6486;DHT22;3276;48.490;9.222;2022-12-20T15:18:20;6.70;26.40
6486;DHT22;3276;48.490;9.222;2022-12-20T15:21:00;6.60;26.50
6486;DHT22;3276;48.490;9.222;2022-12-20T15:23:26;6.50;26.80
6486;DHT22;3276;48.490;9.222;2022-12-20T15:25:52;6.60;26.60
6486;DHT22;3276;48.490;9.222;2022-12-20T15:28:24;6.60;26.50
6486;DHT22;3276;48.490;9.222;2022-12-20T15:30:51;6.60;26.10
6486;DHT22;3276;48.490;9.222;2022-12-20T15:33:23;6.50;26.60
6486;DHT22;3276;48.490;9.222;2022-12-20T15:35:49;6.60;26.10
6486;DHT22;3276;48.490;9.222;2022-12-20T15:38:21;6.60;26.50
6486;DHT22;3276;48.490;9.222;2022-12-20T15:40:50;6.60;25.90
6486;DHT22;3276;48.490;9.222;2022-12-20T15:43:19;6.70;25.50
6486;DHT22;3276;48.490;9.222;2022-12-20T15:45:47;6.70;25.40
6486;DHT22;3276;48.490;9.222;2022-12-20T15:48:16;6.80;26.00
6486;DHT22;3276;48.490;9.222;2022-12-20T15:50:47;6.70;25.60
6486;DHT22;3276;48.490;9.222;2022-12-20T15:53:15;6.70;25.40
6486;DHT22;3276;48.490;9.222;2022-12-20T15:55:42;6.60;26.00
6486;DHT22;3276;48.490;9.222;2022-12-20T15:58:08;6.50;26.10
6486;DHT22;3276;48.490;9.222;2022-12-20T16:00:39;6.50;26.50
6486;DHT22;3276;48.490;9.222;2022-12-20T16:03:13;6.50;26.80
6486;DHT22;3276;48.490;9.222;2022-12-20T16:05:38;6.50;26.60
6486;DHT22;3276;48.490;9.222;2022-12-20T16:08:04;6.50;26.70
6486;DHT22;3276;48.490;9.222;2022-12-20T16:10:30;6.60;26.50
6486;DHT22;3276;48.490;9.222;2022-12-20T16:12:55;6.60;26.60
6486;DHT22;3276;48.490;9.222;2022-12-20T16:15:21;6.60;26.50
6486;DHT22;3276;48.490;9.222;2022-12-20T16:17:47;6.70;26.40
6486;DHT22;3276;48.490;9.222;2022-12-20T16:20:13;6.60;26.50
6486;DHT22;3276;48.490;9.222;2022-12-20T16:22:38;6.70;26.90
6486;DHT22;3276;48.490;9.222;2022-12-20T16:25:04;6.50;26.30
6486;DHT22;3276;48.490;9.222;2022-12-20T16:27:30;6.40;27.30
6486;DHT22;3276;48.490;9.222;2022-12-20T16:29:56;6.40;27.20
6486;DHT22;3276;48.490;9.222;2022-12-20T16:32:21;6.40;27.30
6486;DHT22;3276;48.490;9.222;2022-12-20T16:34:50;6.40;27.20
6486;DHT22;3276;48.490;9.222;2022-12-20T16:37:16;6.40;27.40
6486;DHT22;3276;48.490;9.222;2022-12-20T16:39:41;6.50;27.10
6486;DHT22;3276;48.490;9.222;2022-12-20T16:42:18;6.30;27.30
6486;DHT22;3276;48.490;9.222;2022-12-20T16:44:50;6.20;28.40
6486;DHT22;3276;48.490;9.222;2022-12-20T16:47:15;6.30;28.70
6486;DHT22;3276;48.490;9.222;2022-12-20T16:49:41;6.20;28.30
6486;DHT22;3276;48.490;9.222;2022-12-20T16:52:14;6.20;29.00
6486;DHT22;3276;48.490;9.222;2022-12-20T16:54:40;6.10;29.10
6486;DHT22;3276;48.490;9.222;2022-12-20T16:57:07;6.20;29.70
6486;DHT22;3276;48.490;9.222;2022-12-20T16:59:32;6.30;29.10
6486;DHT22;3276;48.490;9.222;2022-12-20T17:01:58;6.30;29.10
6486;DHT22;3276;48.490;9.222;2022-12-20T17:04:24;6.40;28.30
6486;DHT22;3276;48.490;9.222;2022-12-20T17:06:50;6.40;27.90
6486;DHT22;3276;48.490;9.222;2022-12-20T17:09:17;6.40;27.40
6486;DHT22;3276;48.490;9.222;2022-12-20T17:11:43;6.40;27.90
6486;DHT22;3276;48.490;9.222;2022-12-20T17:14:11;6.40;27.80
6486;DHT22;3276;48.490;9.222;2022-12-20T17:16:37;6.40;27.60
6486;DHT22;3276;48.490;9.222;2022-12-20T17:19:02;6.40;27.50
6486;DHT22;3276;48.490;9.222;2022-12-20T17:21:37;6.50;27.60
6486;DHT22;3276;48.490;9.222;2022-12-20T17:24:05;6.40;27.50
6486;DHT22;3276;48.490;9.222;2022-12-20T17:26:32;6.40;27.30
6486;DHT22;3276;48.490;9.222;2022-12-20T17:28:58;6.50;27.10
6486;DHT22;3276;48.490;9.222;2022-12-20T17:31:34;6.40;27.40
6486;DHT22;3276;48.490;9.222;2022-12-20T17:34:04;6.50;27.40
6486;DHT22;3276;48.490;9.222;2022-12-20T17:36:30;6.50;27.10
6486;DHT22;3276;48.490;9.222;2022-12-20T17:38:56;6.50;27.00
6486;DHT22;3276;48.490;9.222;2022-12-20T17:41:25;6.40;27.40
6486;DHT22;3276;48.490;9.222;2022-12-20T17:43:52;6.40;27.30
6486;DHT22;3276;48.490;9.222;2022-12-20T17:46:18;6.30;27.30
6486;DHT22;3276;48.490;9.222;2022-12-20T17:48:45;6.20;28.10
6486;DHT22;3276;48.490;9.222;2022-12-20T17:51:24;6.20;28.00
6486;DHT22;3276;48.490;9.222;2022-12-20T17:53:53;6.20;28.20
6486;DHT22;3276;48.490;9.222;2022-12-20T17:56:21;6.20;28.40
6486;DHT22;3276;48.490;9.222;2022-12-20T17:58:47;6.30;28.40
6486;DHT22;3276;48.490;9.222;2022-12-20T18:01:20;6.30;28.30
6486;DHT22;3276;48.490;9.222;2022-12-20T18:03:46;6.30;28.40
6486;DHT22;3276;48.490;9.222;2022-12-20T18:06:13;6.30;28.20
6486;DHT22;3276;48.490;9.222;2022-12-20T18:08:38;6.20;28.70
6486;DHT22;3276;48.490;9.222;2022-12-20T18:11:04;6.10;28.60
6486;DHT22;3276;48.490;9.222;2022-12-20T18:13:30;6.10;28.70
6486;DHT22;3276;48.490;9.222;2022-12-20T18:15:56;6.20;28.70
6486;DHT22;3276;48.490;9.222;2022-12-20T18:18:22;6.20;28.70
6486;DHT22;3276;48.490;9.222;2022-12-20T18:20:47;6.20;28.70